Star, North Carolina
Current Conditions -  °F | °C
As of 2:35 PM on Thursday 23 Oct 2014 (Local Time) from KHBI Reporting Station
Clear Clear  
Wind Chill: 65°   Ceiling: Unl
Heat Index: 65°   Visibility: 10mi
Dew Point: 40°   Wind: 5mph
Humidity: 39%   Direction: 320°NW
Pressure: 30.01"   Gusts: NA
Location:  35.4°N, 79.78°W
Report Text: KHBI 231835Z AUTO 32004KT 10SM CLR 19/04 A3001 RMK AO2 T01860042
Loading
Personal Weather Stations






























Interactive Weather Map
Tropical Storm Tracking
New forecast layout! Learn more

10-Day Weather Forecast

Advertisements
Track Severe Weather on mobile